sensor_id;sensor_type;location;lat;lon;timestamp;P1;durP1;ratioP1;P2;durP2;ratioP2
23175;SDS011;19910;42.652;23.332;2023-02-19T00:01:26;4.50;;;2.40;;
23175;SDS011;19910;42.652;23.332;2023-02-19T00:03:55;8.30;;;4.60;;
23175;SDS011;19910;42.652;23.332;2023-02-19T00:06:26;18.17;;;7.97;;
23175;SDS011;19910;42.652;23.332;2023-02-19T00:08:54;12.85;;;6.20;;
23175;SDS011;19910;42.652;23.332;2023-02-19T00:11:21;11.50;;;5.22;;
23175;SDS011;19910;42.652;23.332;2023-02-19T00:13:50;16.88;;;5.68;;
23175;SDS011;19910;42.652;23.332;2023-02-19T00:16:18;13.32;;;6.43;;
23175;SDS011;19910;42.652;23.332;2023-02-19T00:18:47;8.57;;;3.47;;
23175;SDS011;19910;42.652;23.332;2023-02-19T00:21:14;9.70;;;4.95;;
23175;SDS011;19910;42.652;23.332;2023-02-19T00:23:43;10.75;;;4.95;;
23175;SDS011;19910;42.652;23.332;2023-02-19T00:26:14;17.50;;;6.55;;
23175;SDS011;19910;42.652;23.332;2023-02-19T00:28:41;10.52;;;5.35;;
23175;SDS011;19910;42.652;23.332;2023-02-19T00:31:09;9.40;;;5.25;;
23175;SDS011;19910;42.652;23.332;2023-02-19T00:33:41;11.75;;;5.38;;
23175;SDS011;19910;42.652;23.332;2023-02-19T00:36:09;18.80;;;5.60;;
23175;SDS011;19910;42.652;23.332;2023-02-19T00:38:36;12.75;;;6.40;;
23175;SDS011;19910;42.652;23.332;2023-02-19T00:41:05;13.55;;;6.45;;
23175;SDS011;19910;42.652;23.332;2023-02-19T00:43:44;15.88;;;6.15;;
23175;SDS011;19910;42.652;23.332;2023-02-19T00:46:12;12.00;;;6.20;;
23175;SDS011;19910;42.652;23.332;2023-02-19T00:48:42;14.13;;;5.57;;
23175;SDS011;19910;42.652;23.332;2023-02-19T00:51:09;16.63;;;6.07;;
23175;SDS011;19910;42.652;23.332;2023-02-19T00:53:36;10.95;;;5.93;;
23175;SDS011;19910;42.652;23.332;2023-02-19T00:56:03;12.07;;;5.00;;
23175;SDS011;19910;42.652;23.332;2023-02-19T00:58:32;13.52;;;6.03;;
23175;SDS011;19910;42.652;23.332;2023-02-19T01:00:59;12.82;;;5.20;;
23175;SDS011;19910;42.652;23.332;2023-02-19T01:03:26;8.15;;;4.85;;
23175;SDS011;19910;42.652;23.332;2023-02-19T01:05:53;5.95;;;3.38;;
23175;SDS011;19910;42.652;23.332;2023-02-19T01:08:20;15.95;;;4.90;;
23175;SDS011;19910;42.652;23.332;2023-02-19T01:10:47;6.95;;;4.15;;
23175;SDS011;19910;42.652;23.332;2023-02-19T01:13:15;12.15;;;5.18;;
23175;SDS011;19910;42.652;23.332;2023-02-19T01:15:44;10.32;;;5.32;;
23175;SDS011;19910;42.652;23.332;2023-02-19T01:18:11;12.70;;;6.05;;
23175;SDS011;19910;42.652;23.332;2023-02-19T01:20:38;14.07;;;6.18;;
23175;SDS011;19910;42.652;23.332;2023-02-19T01:23:05;10.30;;;4.00;;
23175;SDS011;19910;42.652;23.332;2023-02-19T01:25:32;16.13;;;6.55;;
23175;SDS011;19910;42.652;23.332;2023-02-19T01:27:59;16.30;;;6.13;;
23175;SDS011;19910;42.652;23.332;2023-02-19T01:30:26;14.52;;;5.70;;
23175;SDS011;19910;42.652;23.332;2023-02-19T01:32:54;17.67;;;6.28;;
23175;SDS011;19910;42.652;23.332;2023-02-19T01:35:21;15.52;;;7.05;;
23175;SDS011;19910;42.652;23.332;2023-02-19T01:37:48;14.27;;;6.88;;
23175;SDS011;19910;42.652;23.332;2023-02-19T01:40:14;19.05;;;7.03;;
23175;SDS011;19910;42.652;23.332;2023-02-19T01:42:41;14.35;;;7.18;;
23175;SDS011;19910;42.652;23.332;2023-02-19T01:45:14;15.82;;;7.30;;
23175;SDS011;19910;42.652;23.332;2023-02-19T01:47:47;16.25;;;6.90;;
23175;SDS011;19910;42.652;23.332;2023-02-19T01:50:20;18.00;;;6.93;;
23175;SDS011;19910;42.652;23.332;2023-02-19T01:52:48;16.05;;;6.75;;
23175;SDS011;19910;42.652;23.332;2023-02-19T01:55:15;15.98;;;6.45;;
23175;SDS011;19910;42.652;23.332;2023-02-19T01:57:42;14.13;;;6.07;;
23175;SDS011;19910;42.652;23.332;2023-02-19T02:00:13;14.80;;;7.28;;
23175;SDS011;19910;42.652;23.332;2023-02-19T02:02:42;22.45;;;6.80;;
23175;SDS011;19910;42.652;23.332;2023-02-19T02:05:12;14.80;;;6.00;;
23175;SDS011;19910;42.652;23.332;2023-02-19T02:07:48;14.93;;;5.65;;
23175;SDS011;19910;42.652;23.332;2023-02-19T02:10:32;21.40;;;5.32;;
23175;SDS011;19910;42.652;23.332;2023-02-19T02:12:59;16.08;;;6.15;;
23175;SDS011;19910;42.652;23.332;2023-02-19T02:15:27;14.35;;;6.22;;
23175;SDS011;19910;42.652;23.332;2023-02-19T02:18:03;15.27;;;7.30;;
23175;SDS011;19910;42.652;23.332;2023-02-19T02:20:41;21.92;;;8.00;;
23175;SDS011;19910;42.652;23.332;2023-02-19T02:23:24;13.27;;;7.00;;
23175;SDS011;19910;42.652;23.332;2023-02-19T02:25:58;17.10;;;7.72;;
23175;SDS011;19910;42.652;23.332;2023-02-19T02:31:59;14.48;;;6.30;;
23175;SDS011;19910;42.652;23.332;2023-02-19T02:34:33;9.20;;;4.40;;
23175;SDS011;19910;42.652;23.332;2023-02-19T02:37:05;13.63;;;5.72;;
23175;SDS011;19910;42.652;23.332;2023-02-19T02:39:34;8.52;;;5.22;;
23175;SDS011;19910;42.652;23.332;2023-02-19T02:42:03;13.85;;;6.95;;
23175;SDS011;19910;42.652;23.332;2023-02-19T02:44:47;8.52;;;5.00;;
23175;SDS011;19910;42.652;23.332;2023-02-19T02:47:29;15.88;;;6.15;;
23175;SDS011;19910;42.652;23.332;2023-02-19T02:50:10;12.00;;;5.53;;
23175;SDS011;19910;42.652;23.332;2023-02-19T02:52:40;17.00;;;8.20;;
23175;SDS011;19910;42.652;23.332;2023-02-19T02:55:28;13.40;;;6.28;;
23175;SDS011;19910;42.652;23.332;2023-02-19T02:58:00;35.58;;;13.05;;
23175;SDS011;19910;42.652;23.332;2023-02-19T03:00:27;9.23;;;5.30;;
23175;SDS011;19910;42.652;23.332;2023-02-19T03:03:22;2.72;;;2.13;;
23175;SDS011;19910;42.652;23.332;2023-02-19T03:05:51;10.85;;;5.78;;
23175;SDS011;19910;42.652;23.332;2023-02-19T03:08:22;13.00;;;6.40;;
23175;SDS011;19910;42.652;23.332;2023-02-19T03:10:54;11.07;;;5.45;;
23175;SDS011;19910;42.652;23.332;2023-02-19T03:13:44;20.45;;;5.60;;
23175;SDS011;19910;42.652;23.332;2023-02-19T03:16:30;16.58;;;8.23;;
23175;SDS011;19910;42.652;23.332;2023-02-19T03:19:20;8.95;;;4.82;;
23175;SDS011;19910;42.652;23.332;2023-02-19T03:21:51;11.30;;;5.57;;
23175;SDS011;19910;42.652;23.332;2023-02-19T03:24:23;10.02;;;5.38;;
23175;SDS011;19910;42.652;23.332;2023-02-19T03:27:11;15.95;;;6.40;;
23175;SDS011;19910;42.652;23.332;2023-02-19T03:29:41;13.15;;;6.80;;
23175;SDS011;19910;42.652;23.332;2023-02-19T03:32:11;16.95;;;6.57;;
23175;SDS011;19910;42.652;23.332;2023-02-19T03:34:43;14.48;;;7.63;;
23175;SDS011;19910;42.652;23.332;2023-02-19T03:37:14;9.68;;;5.05;;
23175;SDS011;19910;42.652;23.332;2023-02-19T03:39:45;12.98;;;5.55;;
23175;SDS011;19910;42.652;23.332;2023-02-19T03:42:17;14.20;;;4.60;;
23175;SDS011;19910;42.652;23.332;2023-02-19T03:44:53;9.55;;;5.00;;
23175;SDS011;19910;42.652;23.332;2023-02-19T03:47:33;14.77;;;6.05;;
23175;SDS011;19910;42.652;23.332;2023-02-19T03:50:12;13.80;;;6.55;;
23175;SDS011;19910;42.652;23.332;2023-02-19T03:52:46;13.95;;;5.50;;
23175;SDS011;19910;42.652;23.332;2023-02-19T03:55:21;8.35;;;3.85;;
23175;SDS011;19910;42.652;23.332;2023-02-19T03:57:55;9.32;;;5.28;;
23175;SDS011;19910;42.652;23.332;2023-02-19T04:00:29;10.63;;;5.22;;
23175;SDS011;19910;42.652;23.332;2023-02-19T04:03:04;21.25;;;5.95;;
23175;SDS011;19910;42.652;23.332;2023-02-19T04:05:40;10.45;;;5.50;;
23175;SDS011;19910;42.652;23.332;2023-02-19T04:08:12;21.63;;;10.32;;
23175;SDS011;19910;42.652;23.332;2023-02-19T04:10:41;20.05;;;10.57;;
23175;SDS011;19910;42.652;23.332;2023-02-19T04:13:11;20.95;;;10.80;;
23175;SDS011;19910;42.652;23.332;2023-02-19T04:15:42;21.02;;;10.18;;
23175;SDS011;19910;42.652;23.332;2023-02-19T04:18:13;17.38;;;9.00;;
23175;SDS011;19910;42.652;23.332;2023-02-19T04:20:45;16.55;;;8.85;;
23175;SDS011;19910;42.652;23.332;2023-02-19T04:23:13;18.15;;;9.07;;
23175;SDS011;19910;42.652;23.332;2023-02-19T04:25:45;11.75;;;4.32;;
23175;SDS011;19910;42.652;23.332;2023-02-19T04:28:16;14.82;;;5.68;;
23175;SDS011;19910;42.652;23.332;2023-02-19T04:30:43;12.73;;;5.20;;
23175;SDS011;19910;42.652;23.332;2023-02-19T04:33:11;11.15;;;5.03;;
23175;SDS011;19910;42.652;23.332;2023-02-19T04:35:37;13.48;;;5.07;;
23175;SDS011;19910;42.652;23.332;2023-02-19T04:38:06;9.35;;;4.68;;
23175;SDS011;19910;42.652;23.332;2023-02-19T04:40:32;12.85;;;5.63;;
23175;SDS011;19910;42.652;23.332;2023-02-19T04:42:59;11.75;;;4.88;;
23175;SDS011;19910;42.652;23.332;2023-02-19T04:45:26;8.82;;;4.70;;
23175;SDS011;19910;42.652;23.332;2023-02-19T04:47:53;9.77;;;4.53;;
23175;SDS011;19910;42.652;23.332;2023-02-19T04:50:19;12.02;;;5.15;;
23175;SDS011;19910;42.652;23.332;2023-02-19T04:52:47;12.82;;;5.25;;
23175;SDS011;19910;42.652;23.332;2023-02-19T04:55:15;10.93;;;4.10;;
23175;SDS011;19910;42.652;23.332;2023-02-19T04:57:42;9.82;;;4.32;;
23175;SDS011;19910;42.652;23.332;2023-02-19T05:00:09;9.15;;;4.43;;
23175;SDS011;19910;42.652;23.332;2023-02-19T05:02:37;10.68;;;4.68;;
23175;SDS011;19910;42.652;23.332;2023-02-19T05:05:04;10.10;;;3.80;;
23175;SDS011;19910;42.652;23.332;2023-02-19T05:07:31;11.43;;;4.35;;
23175;SDS011;19910;42.652;23.332;2023-02-19T05:09:58;9.88;;;4.63;;
23175;SDS011;19910;42.652;23.332;2023-02-19T05:12:26;10.10;;;4.55;;
23175;SDS011;19910;42.652;23.332;2023-02-19T05:14:55;10.50;;;4.72;;
23175;SDS011;19910;42.652;23.332;2023-02-19T05:17:21;5.15;;;2.90;;
23175;SDS011;19910;42.652;23.332;2023-02-19T05:19:48;15.80;;;6.10;;
23175;SDS011;19910;42.652;23.332;2023-02-19T05:22:15;11.57;;;3.83;;
23175;SDS011;19910;42.652;23.332;2023-02-19T05:24:42;13.40;;;4.90;;
23175;SDS011;19910;42.652;23.332;2023-02-19T05:27:09;11.38;;;5.35;;
23175;SDS011;19910;42.652;23.332;2023-02-19T05:29:37;13.98;;;5.72;;
23175;SDS011;19910;42.652;23.332;2023-02-19T05:32:04;9.50;;;4.88;;
23175;SDS011;19910;42.652;23.332;2023-02-19T05:34:30;9.68;;;4.78;;
23175;SDS011;19910;42.652;23.332;2023-02-19T05:36:57;12.20;;;5.10;;
23175;SDS011;19910;42.652;23.332;2023-02-19T05:39:24;15.13;;;5.45;;
23175;SDS011;19910;42.652;23.332;2023-02-19T05:41:51;14.07;;;5.75;;
23175;SDS011;19910;42.652;23.332;2023-02-19T05:44:17;15.25;;;5.90;;
23175;SDS011;19910;42.652;23.332;2023-02-19T05:46:45;8.82;;;5.13;;
23175;SDS011;19910;42.652;23.332;2023-02-19T05:49:12;7.60;;;4.80;;
23175;SDS011;19910;42.652;23.332;2023-02-19T05:51:39;16.33;;;5.57;;
23175;SDS011;19910;42.652;23.332;2023-02-19T05:54:06;9.38;;;4.63;;
23175;SDS011;19910;42.652;23.332;2023-02-19T05:56:34;10.65;;;4.65;;
23175;SDS011;19910;42.652;23.332;2023-02-19T05:59:03;10.02;;;4.10;;
23175;SDS011;19910;42.652;23.332;2023-02-19T06:01:32;9.40;;;5.13;;
23175;SDS011;19910;42.652;23.332;2023-02-19T06:04:01;11.85;;;5.38;;
23175;SDS011;19910;42.652;23.332;2023-02-19T06:06:27;11.65;;;4.57;;
23175;SDS011;19910;42.652;23.332;2023-02-19T06:08:54;16.80;;;6.53;;
23175;SDS011;19910;42.652;23.332;2023-02-19T06:11:21;16.65;;;6.63;;
23175;SDS011;19910;42.652;23.332;2023-02-19T06:13:48;12.10;;;6.95;;
23175;SDS011;19910;42.652;23.332;2023-02-19T06:16:15;12.98;;;7.63;;
23175;SDS011;19910;42.652;23.332;2023-02-19T06:18:43;18.10;;;6.97;;
23175;SDS011;19910;42.652;23.332;2023-02-19T06:21:11;12.55;;;5.50;;
23175;SDS011;19910;42.652;23.332;2023-02-19T06:23:40;14.65;;;7.40;;
23175;SDS011;19910;42.652;23.332;2023-02-19T06:26:07;10.07;;;4.95;;
23175;SDS011;19910;42.652;23.332;2023-02-19T06:28:35;3.60;;;2.08;;
23175;SDS011;19910;42.652;23.332;2023-02-19T06:31:02;6.07;;;3.65;;
23175;SDS011;19910;42.652;23.332;2023-02-19T06:33:30;9.23;;;5.13;;
23175;SDS011;19910;42.652;23.332;2023-02-19T06:35:57;11.82;;;6.53;;
23175;SDS011;19910;42.652;23.332;2023-02-19T06:38:26;7.75;;;4.22;;
23175;SDS011;19910;42.652;23.332;2023-02-19T06:40:54;11.75;;;3.60;;
23175;SDS011;19910;42.652;23.332;2023-02-19T06:43:25;10.77;;;5.63;;
23175;SDS011;19910;42.652;23.332;2023-02-19T06:45:51;11.30;;;5.72;;
23175;SDS011;19910;42.652;23.332;2023-02-19T06:48:18;12.77;;;6.40;;
23175;SDS011;19910;42.652;23.332;2023-02-19T06:50:45;9.52;;;3.70;;
23175;SDS011;19910;42.652;23.332;2023-02-19T06:53:12;10.80;;;5.55;;
23175;SDS011;19910;42.652;23.332;2023-02-19T06:55:40;3.55;;;2.08;;
23175;SDS011;19910;42.652;23.332;2023-02-19T06:58:06;12.77;;;5.80;;
23175;SDS011;19910;42.652;23.332;2023-02-19T07:00:33;33.90;;;16.52;;
23175;SDS011;19910;42.652;23.332;2023-02-19T07:03:01;9.55;;;6.28;;
23175;SDS011;19910;42.652;23.332;2023-02-19T07:05:27;12.52;;;6.10;;
23175;SDS011;19910;42.652;23.332;2023-02-19T07:07:54;5.88;;;3.05;;
23175;SDS011;19910;42.652;23.332;2023-02-19T07:10:21;6.72;;;2.90;;
23175;SDS011;19910;42.652;23.332;2023-02-19T07:12:49;7.53;;;4.55;;
23175;SDS011;19910;42.652;23.332;2023-02-19T07:15:16;11.85;;;6.20;;
23175;SDS011;19910;42.652;23.332;2023-02-19T07:17:43;12.43;;;5.88;;
23175;SDS011;19910;42.652;23.332;2023-02-19T07:20:10;10.48;;;5.65;;
23175;SDS011;19910;42.652;23.332;2023-02-19T07:22:37;9.40;;;5.38;;
23175;SDS011;19910;42.652;23.332;2023-02-19T07:25:04;10.52;;;5.57;;
23175;SDS011;19910;42.652;23.332;2023-02-19T07:27:31;7.57;;;4.45;;
23175;SDS011;19910;42.652;23.332;2023-02-19T07:29:59;10.98;;;5.50;;
23175;SDS011;19910;42.652;23.332;2023-02-19T07:32:26;7.40;;;4.68;;
23175;SDS011;19910;42.652;23.332;2023-02-19T07:34:53;8.02;;;4.35;;
23175;SDS011;19910;42.652;23.332;2023-02-19T07:37:20;7.43;;;4.65;;
23175;SDS011;19910;42.652;23.332;2023-02-19T07:39:47;8.88;;;4.57;;
23175;SDS011;19910;42.652;23.332;2023-02-19T07:42:14;7.70;;;3.97;;
23175;SDS011;19910;42.652;23.332;2023-02-19T07:44:41;9.85;;;4.68;;
23175;SDS011;19910;42.652;23.332;2023-02-19T07:47:09;13.70;;;5.10;;
23175;SDS011;19910;42.652;23.332;2023-02-19T07:49:36;10.85;;;5.38;;
23175;SDS011;19910;42.652;23.332;2023-02-19T07:52:02;7.50;;;4.20;;
23175;SDS011;19910;42.652;23.332;2023-02-19T07:54:29;9.65;;;4.75;;
23175;SDS011;19910;42.652;23.332;2023-02-19T07:56:56;10.00;;;4.85;;
23175;SDS011;19910;42.652;23.332;2023-02-19T07:59:23;7.90;;;4.65;;
23175;SDS011;19910;42.652;23.332;2023-02-19T08:01:50;10.02;;;4.95;;
23175;SDS011;19910;42.652;23.332;2023-02-19T08:04:36;8.20;;;4.57;;
23175;SDS011;19910;42.652;23.332;2023-02-19T08:07:03;7.57;;;4.85;;
23175;SDS011;19910;42.652;23.332;2023-02-19T08:09:30;9.60;;;4.20;;
23175;SDS011;19910;42.652;23.332;2023-02-19T08:11:57;10.70;;;5.05;;
23175;SDS011;19910;42.652;23.332;2023-02-19T08:14:41;8.95;;;5.32;;
23175;SDS011;19910;42.652;23.332;2023-02-19T08:17:08;9.60;;;5.10;;
23175;SDS011;19910;42.652;23.332;2023-02-19T08:19:36;8.18;;;4.85;;
23175;SDS011;19910;42.652;23.332;2023-02-19T08:22:03;8.93;;;4.78;;
23175;SDS011;19910;42.652;23.332;2023-02-19T08:24:30;13.20;;;5.55;;
23175;SDS011;19910;42.652;23.332;2023-02-19T08:26:58;9.35;;;5.15;;
23175;SDS011;19910;42.652;23.332;2023-02-19T08:29:25;7.13;;;4.25;;
23175;SDS011;19910;42.652;23.332;2023-02-19T08:31:52;7.97;;;4.38;;
23175;SDS011;19910;42.652;23.332;2023-02-19T08:34:18;5.38;;;3.88;;
23175;SDS011;19910;42.652;23.332;2023-02-19T08:36:46;7.50;;;4.80;;
23175;SDS011;19910;42.652;23.332;2023-02-19T08:39:13;7.68;;;5.03;;
23175;SDS011;19910;42.652;23.332;2023-02-19T08:41:40;3.42;;;2.20;;
23175;SDS011;19910;42.652;23.332;2023-02-19T08:44:07;5.88;;;3.60;;
23175;SDS011;19910;42.652;23.332;2023-02-19T08:46:33;5.00;;;3.40;;
23175;SDS011;19910;42.652;23.332;2023-02-19T08:49:00;5.65;;;3.55;;
23175;SDS011;19910;42.652;23.332;2023-02-19T08:51:27;5.00;;;3.42;;
23175;SDS011;19910;42.652;23.332;2023-02-19T08:53:55;6.70;;;3.25;;
23175;SDS011;19910;42.652;23.332;2023-02-19T08:56:22;7.22;;;3.72;;
23175;SDS011;19910;42.652;23.332;2023-02-19T08:58:48;6.10;;;3.50;;
23175;SDS011;19910;42.652;23.332;2023-02-19T09:01:16;5.93;;;3.53;;
23175;SDS011;19910;42.652;23.332;2023-02-19T09:03:43;6.82;;;3.45;;
23175;SDS011;19910;42.652;23.332;2023-02-19T09:06:11;6.20;;;3.33;;
23175;SDS011;19910;42.652;23.332;2023-02-19T09:08:40;4.85;;;3.00;;
23175;SDS011;19910;42.652;23.332;2023-02-19T09:11:08;5.10;;;3.08;;
23175;SDS011;19910;42.652;23.332;2023-02-19T09:13:35;5.00;;;3.00;;
23175;SDS011;19910;42.652;23.332;2023-02-19T09:16:02;4.05;;;2.58;;
23175;SDS011;19910;42.652;23.332;2023-02-19T09:18:29;5.63;;;3.65;;
23175;SDS011;19910;42.652;23.332;2023-02-19T09:20:58;5.47;;;3.47;;
23175;SDS011;19910;42.652;23.332;2023-02-19T09:23:25;7.93;;;3.30;;
23175;SDS011;19910;42.652;23.332;2023-02-19T09:25:55;5.75;;;3.47;;
23175;SDS011;19910;42.652;23.332;2023-02-19T09:28:25;8.00;;;3.13;;
23175;SDS011;19910;42.652;23.332;2023-02-19T09:30:52;5.90;;;3.45;;
23175;SDS011;19910;42.652;23.332;2023-02-19T09:33:19;6.68;;;3.80;;
23175;SDS011;19910;42.652;23.332;2023-02-19T09:35:46;6.32;;;3.88;;
23175;SDS011;19910;42.652;23.332;2023-02-19T09:38:13;5.45;;;3.97;;
23175;SDS011;19910;42.652;23.332;2023-02-19T09:40:39;9.73;;;4.18;;
23175;SDS011;19910;42.652;23.332;2023-02-19T09:43:06;5.97;;;3.80;;
23175;SDS011;19910;42.652;23.332;2023-02-19T09:45:38;7.47;;;4.00;;
23175;SDS011;19910;42.652;23.332;2023-02-19T09:48:05;7.07;;;3.50;;
23175;SDS011;19910;42.652;23.332;2023-02-19T09:50:35;10.20;;;3.80;;
23175;SDS011;19910;42.652;23.332;2023-02-19T09:53:06;4.75;;;3.35;;
23175;SDS011;19910;42.652;23.332;2023-02-19T09:55:40;4.18;;;2.42;;
23175;SDS011;19910;42.652;23.332;2023-02-19T09:58:15;4.85;;;3.35;;
23175;SDS011;19910;42.652;23.332;2023-02-19T10:00:50;5.15;;;3.28;;
23175;SDS011;19910;42.652;23.332;2023-02-19T10:03:20;7.60;;;3.28;;
23175;SDS011;19910;42.652;23.332;2023-02-19T10:05:54;6.25;;;3.60;;
23175;SDS011;19910;42.652;23.332;2023-02-19T10:08:23;7.57;;;3.83;;
23175;SDS011;19910;42.652;23.332;2023-02-19T10:10:50;7.75;;;3.50;;
23175;SDS011;19910;42.652;23.332;2023-02-19T10:13:19;7.65;;;3.22;;
23175;SDS011;19910;42.652;23.332;2023-02-19T10:15:49;6.03;;;3.47;;
23175;SDS011;19910;42.652;23.332;2023-02-19T10:18:21;4.07;;;3.30;;
23175;SDS011;19910;42.652;23.332;2023-02-19T10:20:50;8.05;;;3.60;;
23175;SDS011;19910;42.652;23.332;2023-02-19T10:23:17;6.35;;;3.33;;
23175;SDS011;19910;42.652;23.332;2023-02-19T10:25:46;6.75;;;3.33;;
23175;SDS011;19910;42.652;23.332;2023-02-19T10:28:18;7.95;;;3.25;;
23175;SDS011;19910;42.652;23.332;2023-02-19T10:30:51;6.88;;;3.92;;
23175;SDS011;19910;42.652;23.332;2023-02-19T10:33:19;5.35;;;3.55;;
23175;SDS011;19910;42.652;23.332;2023-02-19T10:35:51;5.70;;;3.78;;
23175;SDS011;19910;42.652;23.332;2023-02-19T10:38:22;5.18;;;3.45;;
23175;SDS011;19910;42.652;23.332;2023-02-19T10:40:57;7.35;;;3.78;;
23175;SDS011;19910;42.652;23.332;2023-02-19T10:43:27;4.43;;;3.15;;
23175;SDS011;19910;42.652;23.332;2023-02-19T10:45:59;9.52;;;3.55;;
23175;SDS011;19910;42.652;23.332;2023-02-19T10:48:29;8.13;;;4.10;;
23175;SDS011;19910;42.652;23.332;2023-02-19T10:50:58;5.78;;;3.60;;
23175;SDS011;19910;42.652;23.332;2023-02-19T10:53:41;6.57;;;3.80;;
23175;SDS011;19910;42.652;23.332;2023-02-19T10:56:10;6.32;;;3.92;;
23175;SDS011;19910;42.652;23.332;2023-02-19T10:58:40;6.45;;;3.58;;
23175;SDS011;19910;42.652;23.332;2023-02-19T11:06:42;6.90;;;4.25;;
23175;SDS011;19910;42.652;23.332;2023-02-19T11:09:19;6.82;;;3.63;;
23175;SDS011;19910;42.652;23.332;2023-02-19T11:11:51;7.68;;;3.83;;
23175;SDS011;19910;42.652;23.332;2023-02-19T11:14:20;6.38;;;3.88;;
23175;SDS011;19910;42.652;23.332;2023-02-19T11:16:50;7.82;;;3.40;;
23175;SDS011;19910;42.652;23.332;2023-02-19T11:19:24;5.07;;;3.72;;
23175;SDS011;19910;42.652;23.332;2023-02-19T11:21:54;7.57;;;3.33;;
23175;SDS011;19910;42.652;23.332;2023-02-19T11:24:22;6.70;;;3.10;;
23175;SDS011;19910;42.652;23.332;2023-02-19T11:26:53;3.83;;;2.83;;
23175;SDS011;19910;42.652;23.332;2023-02-19T11:29:22;3.72;;;2.42;;
23175;SDS011;19910;42.652;23.332;2023-02-19T11:31:54;6.28;;;3.58;;
23175;SDS011;19910;42.652;23.332;2023-02-19T11:34:23;4.68;;;3.03;;
23175;SDS011;19910;42.652;23.332;2023-02-19T11:37:07;4.72;;;3.00;;
23175;SDS011;19910;42.652;23.332;2023-02-19T11:39:37;7.40;;;3.30;;
23175;SDS011;19910;42.652;23.332;2023-02-19T11:42:14;3.67;;;2.33;;
23175;SDS011;19910;42.652;23.332;2023-02-19T11:45:11;7.60;;;3.90;;
23175;SDS011;19910;42.652;23.332;2023-02-19T11:48:05;4.38;;;2.70;;
23175;SDS011;19910;42.652;23.332;2023-02-19T11:50:49;4.55;;;2.97;;
23175;SDS011;19910;42.652;23.332;2023-02-19T11:53:24;6.78;;;2.72;;
23175;SDS011;19910;42.652;23.332;2023-02-19T11:55:55;3.85;;;2.90;;
23175;SDS011;19910;42.652;23.332;2023-02-19T12:04:44;6.20;;;3.65;;
23175;SDS011;19910;42.652;23.332;2023-02-19T12:07:24;9.43;;;4.60;;
23175;SDS011;19910;42.652;23.332;2023-02-19T12:10:07;7.10;;;4.35;;
23175;SDS011;19910;42.652;23.332;2023-02-19T12:12:48;7.15;;;4.00;;
23175;SDS011;19910;42.652;23.332;2023-02-19T12:15:25;6.93;;;4.50;;
23175;SDS011;19910;42.652;23.332;2023-02-19T12:18:12;5.47;;;3.63;;
23175;SDS011;19910;42.652;23.332;2023-02-19T12:20:51;5.93;;;3.60;;
23175;SDS011;19910;42.652;23.332;2023-02-19T12:23:46;6.30;;;3.40;;
23175;SDS011;19910;42.652;23.332;2023-02-19T12:26:26;9.43;;;4.70;;
23175;SDS011;19910;42.652;23.332;2023-02-19T12:29:08;6.45;;;3.60;;
23175;SDS011;19910;42.652;23.332;2023-02-19T12:32:02;6.43;;;3.55;;
23175;SDS011;19910;42.652;23.332;2023-02-19T12:35:04;5.70;;;3.88;;
23175;SDS011;19910;42.652;23.332;2023-02-19T12:37:52;7.00;;;3.70;;
23175;SDS011;19910;42.652;23.332;2023-02-19T12:40:31;5.25;;;3.97;;
23175;SDS011;19910;42.652;23.332;2023-02-19T12:43:09;5.45;;;3.50;;
23175;SDS011;19910;42.652;23.332;2023-02-19T12:45:41;5.45;;;3.67;;
23175;SDS011;19910;42.652;23.332;2023-02-19T12:48:15;5.00;;;3.60;;
23175;SDS011;19910;42.652;23.332;2023-02-19T12:50:49;4.70;;;3.45;;
23175;SDS011;19910;42.652;23.332;2023-02-19T12:53:27;4.90;;;3.22;;
23175;SDS011;19910;42.652;23.332;2023-02-19T12:56:01;4.97;;;3.42;;
23175;SDS011;19910;42.652;23.332;2023-02-19T12:58:34;8.32;;;3.60;;
23175;SDS011;19910;42.652;23.332;2023-02-19T13:01:04;11.43;;;3.42;;
23175;SDS011;19910;42.652;23.332;2023-02-19T13:03:36;5.53;;;3.53;;
23175;SDS011;19910;42.652;23.332;2023-02-19T13:06:09;6.30;;;3.33;;
23175;SDS011;19910;42.652;23.332;2023-02-19T13:08:49;6.65;;;3.80;;
23175;SDS011;19910;42.652;23.332;2023-02-19T13:11:21;6.13;;;3.60;;
23175;SDS011;19910;42.652;23.332;2023-02-19T13:13:54;5.78;;;3.85;;
23175;SDS011;19910;42.652;23.332;2023-02-19T13:16:25;5.97;;;4.00;;
23175;SDS011;19910;42.652;23.332;2023-02-19T13:18:57;6.85;;;3.35;;
23175;SDS011;19910;42.652;23.332;2023-02-19T13:21:26;5.65;;;4.30;;
23175;SDS011;19910;42.652;23.332;2023-02-19T13:24:16;5.50;;;3.67;;
23175;SDS011;19910;42.652;23.332;2023-02-19T13:26:53;9.57;;;4.57;;
23175;SDS011;19910;42.652;23.332;2023-02-19T13:29:51;6.70;;;4.82;;
23175;SDS011;19910;42.652;23.332;2023-02-19T13:32:38;9.20;;;4.65;;
23175;SDS011;19910;42.652;23.332;2023-02-19T13:38:24;6.40;;;3.17;;
23175;SDS011;19910;42.652;23.332;2023-02-19T13:40:54;6.95;;;4.13;;
23175;SDS011;19910;42.652;23.332;2023-02-19T13:43:23;6.07;;;3.95;;
23175;SDS011;19910;42.652;23.332;2023-02-19T13:45:54;9.25;;;3.08;;
23175;SDS011;19910;42.652;23.332;2023-02-19T13:48:26;6.20;;;3.95;;
23175;SDS011;19910;42.652;23.332;2023-02-19T13:54:00;5.43;;;3.38;;
23175;SDS011;19910;42.652;23.332;2023-02-19T13:56:39;6.47;;;3.33;;
23175;SDS011;19910;42.652;23.332;2023-02-19T14:02:05;8.73;;;3.45;;
23175;SDS011;19910;42.652;23.332;2023-02-19T14:04:40;5.30;;;3.53;;
23175;SDS011;19910;42.652;23.332;2023-02-19T14:07:21;7.75;;;3.75;;
23175;SDS011;19910;42.652;23.332;2023-02-19T14:10:00;6.55;;;3.75;;
23175;SDS011;19910;42.652;23.332;2023-02-19T14:12:32;5.18;;;3.25;;
23175;SDS011;19910;42.652;23.332;2023-02-19T14:21:11;6.78;;;4.03;;
23175;SDS011;19910;42.652;23.332;2023-02-19T14:23:41;6.57;;;3.50;;
23175;SDS011;19910;42.652;23.332;2023-02-19T14:26:09;5.03;;;3.35;;
23175;SDS011;19910;42.652;23.332;2023-02-19T14:28:41;5.35;;;3.42;;
23175;SDS011;19910;42.652;23.332;2023-02-19T14:31:14;8.15;;;3.72;;
23175;SDS011;19910;42.652;23.332;2023-02-19T14:33:46;8.18;;;3.40;;
23175;SDS011;19910;42.652;23.332;2023-02-19T14:36:17;9.85;;;3.40;;
23175;SDS011;19910;42.652;23.332;2023-02-19T14:38:54;5.88;;;3.40;;
23175;SDS011;19910;42.652;23.332;2023-02-19T14:41:23;4.95;;;3.13;;
23175;SDS011;19910;42.652;23.332;2023-02-19T14:43:52;4.97;;;3.60;;
23175;SDS011;19910;42.652;23.332;2023-02-19T14:46:23;7.32;;;3.42;;
23175;SDS011;19910;42.652;23.332;2023-02-19T14:48:56;5.13;;;3.30;;
23175;SDS011;19910;42.652;23.332;2023-02-19T14:51:30;8.02;;;3.42;;
23175;SDS011;19910;42.652;23.332;2023-02-19T14:54:02;10.63;;;5.60;;
23175;SDS011;19910;42.652;23.332;2023-02-19T14:56:37;10.18;;;4.03;;
23175;SDS011;19910;42.652;23.332;2023-02-19T14:59:19;7.57;;;3.47;;
23175;SDS011;19910;42.652;23.332;2023-02-19T15:01:58;6.88;;;3.45;;
23175;SDS011;19910;42.652;23.332;2023-02-19T15:04:27;4.88;;;3.35;;
23175;SDS011;19910;42.652;23.332;2023-02-19T15:06:55;7.65;;;3.70;;
23175;SDS011;19910;42.652;23.332;2023-02-19T15:09:28;5.38;;;3.83;;
23175;SDS011;19910;42.652;23.332;2023-02-19T15:11:56;5.60;;;4.07;;
23175;SDS011;19910;42.652;23.332;2023-02-19T15:14:25;4.95;;;3.72;;
23175;SDS011;19910;42.652;23.332;2023-02-19T15:16:55;7.57;;;3.90;;
23175;SDS011;19910;42.652;23.332;2023-02-19T15:19:25;14.75;;;7.85;;
23175;SDS011;19910;42.652;23.332;2023-02-19T15:21:53;10.77;;;6.20;;